• Join FlightAware (Why Join?)
  • Login
  • US Flag 
06:00AM EDT


 

Airport Tracker/Info


-or-


 

Live Flight TrackerFlight Track Log ✈ UAL1112 ✈ 22-Apr-2013 ✈ KBOS - KEWR

Flight Track Log - Related Links

Times and Time Zones

All times are in EDT time to prevent confusion due to time zone crossing. See the UAL1112 flight status page for this flight to view local times or setup timezone preferences in your user account.

Time Position Orientation Groundspeed Altitude Reporting Facility
EDT Latitude Longitude Course Direction KTS MPH feet Rate Location/Type
12:15PM 42.3667 -70.9833 241° Southwest 134 154 900  Level KA90
12:17PM 42.2500 -71.2560 270° West  Level FlightAware Approximate
12:17PM 42.3850 -70.8519 79° East 236 272 5,100  Level Boston Center
12:18PM 42.2186 -71.3444 246° West  Level FlightAware Approximate
12:18PM 42.3839 -70.7592 91° East 236 272 8,000  Level Boston Center
12:19PM 42.1884 -71.4351 246° West  Level FlightAware Approximate
12:19PM 42.3208 -70.7244 158° South 199 229 12,000  Level Boston Center
12:20PM 42.1564 -71.5246 241° Southwest  Level FlightAware Approximate
12:20PM 42.2464 -70.7631 201° Southwest 208 239 14,800  Level Boston Center
12:21PM 42.2253 -70.8897 257° West 267 307 16,100 600 Climbing Boston Center
12:22PM 42.2042 -71.0331 259° West 332 382 16,000 -60 Descending Boston Center
12:23PM 42.1867 -71.1511 259° West 363 418 16,000  Level Boston Center
12:24PM 42.1692 -71.2719 259° West 363 418 16,000  Level Boston Center
12:26PM 42.1676 -71.4929 270° West  Level FlightAware Approximate
12:26PM 42.1239 -71.5611 270° West 358 412 16,000  Level Boston Center
12:27PM 42.1042 -71.6931 259° West 358 412 16,000  Level Boston Center
12:28PM 42.0861 -71.8108 258° West 358 412 16,000 -60 Level Boston Center
12:29PM 42.0639 -71.9422 257° West 358 412 15,900 -60 Descending Boston Center
12:30PM 42.0433 -72.0683 258° West 339 390 15,900  Level Boston Center
12:31PM 42.0250 -72.1775 257° West 325 374 15,900  Level Boston Center
12:32PM 42.0044 -72.3031 258° West 325 374 16,000  Climbing Boston Center
12:33PM 41.9878 -72.4094 258° West 320 368 16,000  Level Boston Center
12:34PM 41.9628 -72.5575 257° West 315 362 16,000  Level Boston Center
12:35PM 41.9436 -72.6744 258° West 315 362 16,000  Level Boston Center
12:36PM 41.9183 -72.7889 254° West 315 362 16,000  Level Boston Center
12:37PM 41.8889 -72.9003 250° West 315 362 16,000  Level Boston Center
12:38PM 41.8656 -73.0117 254° West 321 369 16,000  Level Boston Center
12:39PM 41.8419 -73.1144 253° West 321 369 16,000  Level Boston Center
12:40PM 41.8119 -73.2367 252° West 321 369 16,000  Level Boston Center
12:41PM 41.7861 -73.3367 251° West 326 375 16,000 -1,020 Level Boston Center
12:42PM 41.7561 -73.4586 252° West 326 375 14,000 -1,980 Descending Boston Center
12:43PM 41.7300 -73.5611 251° West 326 375 12,100 -1,920 Descending Boston Center
12:44PM 41.7017 -73.6803 252° West 319 367 10,200 -1,080 Descending Boston Center
12:45PM 41.6775 -73.7797 252° West 319 367 10,000 -120 Descending Boston Center
12:46PM 41.6408 -73.8900 246° West 319 367 10,000 -480 Level Boston Center
12:47PM 41.6044 -73.9725 239° Southwest 288 331 9,100 -1,020 Descending Boston Center
12:48PM 41.5531 -74.0628 233° Southwest 283 326 8,000 -1,200 Descending Boston Center
12:49PM 41.5167 -74.1333 235° Southwest 281 323 7,000 -600 Descending New York TRACON
12:50PM 41.4500 -74.1667 201° Southwest 261 300 7,000 -60 Level New York TRACON
12:51PM 41.4000 -74.2500 231° Southwest 278 320 6,900 -600 Descending New York TRACON
12:52PM 41.3500 -74.3333 231° Southwest 272 313 5,900 -960 Descending New York TRACON
12:53PM 41.3000 -74.4167 231° Southwest 275 316 5,000 -480 Descending New York TRACON
12:54PM 41.2500 -74.4667 217° Southwest 265 305 5,000  Level New York TRACON
12:54PM 41.1833 -74.4833 191° South 260 299 5,000  Level New York TRACON
12:56PM 41.1167 -74.5167 201° Southwest 263 303 5,000 -480 Level New York TRACON
12:57PM 41.0333 -74.5333 189° South 261 300 4,000 -540 Descending New York TRACON
12:57PM 40.9667 -74.5333 180° South 252 290 4,000 -540 Level New York TRACON
12:59PM 40.9000 -74.5333 180° South 252 290 3,000 -480 Descending New York TRACON
01:00PM 40.8333 -74.5333 180° South 240 276 3,000  Level New York TRACON
01:00PM 40.7833 -74.5333 180° South 188 216 3,000 -480 Level New York TRACON
01:02PM 40.7333 -74.5000 153° Southeast 182 209 2,100 -480 Descending New York TRACON
01:03PM 40.7167 -74.4500 114° Southeast 171 197 2,000 -60 Descending New York TRACON
01:04PM 40.7167 -74.3833 90° East 168 193 2,000  Level New York TRACON